{ Espejos - UCR - Mirrors }

Listing Directory: mirrors.ucr.ac.cr/ubuntu/dists/

[ICO]NameLast modifiedSize
[PARENTDIR]Parent Directory  -
[DIR]trusty/2015-10-07 05:44 -
[DIR]xenial/2016-04-21 01:43 -
[DIR]trusty-backports/2017-12-15 03:49 -
[DIR]bionic/2018-04-26 17:38 -
[DIR]focal/2020-04-23 11:34 -
[DIR]trusty-security/2020-05-29 02:06 -
[DIR]trusty-updates/2020-05-29 02:08 -
[DIR]trusty-proposed/2020-06-06 00:57 -
[DIR]jammy/2022-04-21 11:16 -
[DIR]kinetic/2022-10-20 13:48 -
[DIR]xenial-proposed/2022-11-25 08:13 -
[DIR]devel-backports/2022-11-29 14:39 -
[DIR]lunar-backports/2022-11-29 14:39 -
[DIR]devel-security/2022-11-29 16:45 -
[DIR]lunar-security/2022-11-29 16:45 -
[DIR]devel-updates/2022-11-29 16:45 -
[DIR]lunar-updates/2022-11-29 16:45 -
[DIR]kinetic-security/2022-11-29 18:21 -
[DIR]kinetic-updates/2022-11-29 18:21 -
[DIR]kinetic-backports/2022-11-29 18:21 -
[DIR]jammy-security/2022-11-29 18:21 -
[DIR]jammy-backports/2022-11-29 18:22 -
[DIR]focal-security/2022-11-29 18:23 -
[DIR]focal-updates/2022-11-29 18:24 -
[DIR]focal-proposed/2022-11-29 18:24 -
[DIR]focal-backports/2022-11-29 18:24 -
[DIR]bionic-security/2022-11-29 18:26 -
[DIR]bionic-updates/2022-11-29 18:28 -
[DIR]bionic-proposed/2022-11-29 18:28 -
[DIR]bionic-backports/2022-11-29 18:28 -
[DIR]xenial-security/2022-11-29 18:29 -
[DIR]xenial-updates/2022-11-29 18:30 -
[DIR]xenial-backports/2022-11-29 18:30 -
[DIR]devel/2022-11-29 19:15 -
[DIR]lunar/2022-11-29 19:15 -
[DIR]devel-proposed/2022-11-29 19:15 -
[DIR]lunar-proposed/2022-11-29 19:15 -
[DIR]kinetic-proposed/2022-11-29 19:15 -
[DIR]jammy-updates/2022-11-29 19:15 -
[DIR]jammy-proposed/2022-11-29 19:15 -